Time;durP1;ratioP1;P1;durP2;ratioP2;P2;SDS_P1;SDS_P2;PMS_P1;PMS_P2;Temp;Humidity;BMP_temperature;BMP_pressure;BME280_temperature;BME280_humidity;BME280_pressure;Samples;Min_cycle;Max_cycle;Signal;HPM_P1;HPM_P2
2022/05/25 00:01:50;;;;;;;2.13;1.40;;;;;;;;;;4919606;29;20516;-77
2022/05/25 00:04:18;;;;;;;1.20;1.00;;;;;;;;;;4951838;29;20463;-77
2022/05/25 00:06:45;;;;;;;1.47;1.17;;;;;;;;;;4921294;29;20464;-77
2022/05/25 00:09:12;;;;;;;1.63;0.90;;;;;;;;;;4916470;29;20571;-77
2022/05/25 00:11:40;;;;;;;3.20;1.10;;;;;;;;;;4915807;29;20492;-77
2022/05/25 00:14:06;;;;;;;1.30;1.00;;;;;;;;;;4934032;29;20526;-77
2022/05/25 00:16:33;;;;;;;1.33;1.00;;;;;;;;;;4936089;29;20514;-77
2022/05/25 00:21:43;;;;;;;1.83;1.30;;;;;;;;;;4922304;29;20448;-77
2022/05/25 00:24:10;;;;;;;2.40;1.37;;;;;;;;;;4932476;29;20531;-77
2022/05/25 00:26:36;;;;;;;1.67;1.00;;;;;;;;;;4922370;29;20471;-77
2022/05/25 00:29:04;;;;;;;1.43;1.10;;;;;;;;;;4920245;29;20559;-77
2022/05/25 00:31:31;;;;;;;1.00;0.87;;;;;;;;;;4943456;29;20952;-77
2022/05/25 00:33:58;;;;;;;2.60;1.10;;;;;;;;;;4946605;29;20452;-77
2022/05/25 00:36:24;;;;;;;1.73;1.17;;;;;;;;;;4938033;29;20440;-77
2022/05/25 00:38:51;;;;;;;1.20;1.00;;;;;;;;;;4920433;29;20440;-77
2022/05/25 00:41:18;;;;;;;2.30;0.97;;;;;;;;;;4926809;29;20470;-77
2022/05/25 00:43:44;;;;;;;1.20;1.00;;;;;;;;;;4936922;29;20459;-77
2022/05/25 00:46:16;;;;;;;2.13;1.33;;;;;;;;;;4937453;29;20796;-77
2022/05/25 00:48:45;;;;;;;1.73;1.13;;;;;;;;;;4920364;29;20550;-77
2022/05/25 00:51:15;;;;;;;1.50;0.90;;;;;;;;;;4941258;29;20854;-77
2022/05/25 00:53:42;;;;;;;1.20;0.93;;;;;;;;;;4937608;29;20429;-77
2022/05/25 00:56:10;;;;;;;1.23;1.10;;;;;;;;;;4925076;29;20515;-77
2022/05/25 00:58:38;;;;;;;1.30;0.87;;;;;;;;;;4937758;29;20451;-77
2022/05/25 01:01:04;;;;;;;1.00;0.90;;;;;;;;;;4918899;29;21209;-77
2022/05/25 01:03:33;;;;;;;1.93;0.97;;;;;;;;;;4916102;29;20486;-77
2022/05/25 01:06:04;;;;;;;1.40;1.10;;;;;;;;;;4934886;29;20444;-77
2022/05/25 01:08:34;;;;;;;1.40;0.93;;;;;;;;;;4919337;29;20477;-77
2022/05/25 01:11:07;;;;;;;1.00;0.80;;;;;;;;;;4944621;29;20536;-77
2022/05/25 01:13:37;;;;;;;1.43;1.00;;;;;;;;;;4937830;29;20447;-77
2022/05/25 01:16:12;;;;;;;1.70;0.87;;;;;;;;;;4945933;29;20774;-77
2022/05/25 01:18:46;;;;;;;1.17;0.70;;;;;;;;;;4918971;29;20550;-77
2022/05/25 01:21:16;;;;;;;1.40;1.00;;;;;;;;;;4915646;29;20469;-77
2022/05/25 01:24:04;;;;;;;1.20;0.90;;;;;;;;;;4922073;29;20940;-77
2022/05/25 01:26:41;;;;;;;1.73;0.70;;;;;;;;;;4905868;29;20483;-77
2022/05/25 01:29:17;;;;;;;1.20;0.70;;;;;;;;;;4921395;29;20957;-77
2022/05/25 01:31:48;;;;;;;1.50;1.10;;;;;;;;;;4917032;29;20449;-77
2022/05/25 01:34:20;;;;;;;1.40;0.97;;;;;;;;;;4919085;29;20483;-78
2022/05/25 01:36:49;;;;;;;1.10;0.90;;;;;;;;;;4935251;29;20936;-77
2022/05/25 01:39:17;;;;;;;1.93;1.00;;;;;;;;;;4904730;29;20540;-76
2022/05/25 01:41:47;;;;;;;2.10;1.23;;;;;;;;;;4920291;29;20531;-77
2022/05/25 01:44:18;;;;;;;1.60;1.10;;;;;;;;;;4936342;29;20535;-76
2022/05/25 01:46:47;;;;;;;1.10;0.80;;;;;;;;;;4922597;29;20491;-77
2022/05/25 01:49:17;;;;;;;1.40;1.10;;;;;;;;;;4919450;29;20476;-77
2022/05/25 01:51:46;;;;;;;5.67;1.30;;;;;;;;;;4936094;29;20847;-78
2022/05/25 01:54:13;;;;;;;1.60;1.10;;;;;;;;;;4939949;29;20537;-78
2022/05/25 01:56:41;;;;;;;1.40;0.73;;;;;;;;;;4924604;29;20456;-77
2022/05/25 01:59:09;;;;;;;2.00;1.00;;;;;;;;;;4938437;29;20445;-76
2022/05/25 02:01:35;;;;;;;1.57;1.00;;;;;;;;;;4925808;29;21014;-76
2022/05/25 02:07:01;;;;;;;1.50;1.00;;;;;;;;;;4916107;29;20448;-78
2022/05/25 02:09:38;;;;;;;1.40;0.80;;;;;;;;;;4914942;29;20854;-76
2022/05/25 02:12:08;;;;;;;1.43;1.03;;;;;;;;;;4916742;29;20460;-78
2022/05/25 02:14:37;;;;;;;1.40;1.10;;;;;;;;;;4930462;29;20539;-78
2022/05/25 02:17:08;;;;;;;1.40;1.10;;;;;;;;;;4920638;29;20540;-78
2022/05/25 02:19:38;;;;;;;1.33;1.20;;;;;;;;;;4917042;29;20414;-78
2022/05/25 02:22:09;;;;;;;1.27;0.90;;;;;;;;;;4916227;29;20453;-78
2022/05/25 02:24:40;;;;;;;1.30;0.90;;;;;;;;;;4915143;29;20441;-78
2022/05/25 02:27:10;;;;;;;0.87;0.63;;;;;;;;;;4916653;29;20467;-78
2022/05/25 02:29:38;;;;;;;1.10;0.80;;;;;;;;;;4912560;29;20564;-78
2022/05/25 02:32:08;;;;;;;1.83;0.80;;;;;;;;;;4913239;29;20520;-78
2022/05/25 02:34:35;;;;;;;1.60;0.90;;;;;;;;;;4921502;29;20452;-78
2022/05/25 02:37:02;;;;;;;1.77;0.80;;;;;;;;;;4917120;29;20488;-78
2022/05/25 02:39:29;;;;;;;0.90;0.60;;;;;;;;;;4918067;29;20433;-78
2022/05/25 02:41:57;;;;;;;1.20;0.80;;;;;;;;;;4931569;29;20562;-78
2022/05/25 02:44:24;;;;;;;1.17;0.77;;;;;;;;;;4919844;29;20858;-78
2022/05/25 02:46:51;;;;;;;0.97;0.70;;;;;;;;;;4915874;29;20449;-78
2022/05/25 02:49:18;;;;;;;2.07;1.10;;;;;;;;;;4915500;29;20473;-78
2022/05/25 02:51:45;;;;;;;1.27;1.17;;;;;;;;;;4922882;29;20571;-77
2022/05/25 02:54:11;;;;;;;1.43;0.80;;;;;;;;;;4915875;29;20501;-77
2022/05/25 02:56:38;;;;;;;1.50;0.80;;;;;;;;;;4916314;29;20537;-77
2022/05/25 02:59:06;;;;;;;1.37;0.80;;;;;;;;;;4917908;29;20535;-77
2022/05/25 03:01:33;;;;;;;1.07;0.80;;;;;;;;;;4915862;29;20841;-77
2022/05/25 03:03:59;;;;;;;1.70;0.97;;;;;;;;;;4914012;29;20609;-77
2022/05/25 03:06:26;;;;;;;2.03;0.77;;;;;;;;;;4915189;29;20468;-77
2022/05/25 03:08:52;;;;;;;1.33;1.03;;;;;;;;;;4913568;29;20473;-77
2022/05/25 03:11:19;;;;;;;2.07;0.80;;;;;;;;;;4934178;29;20535;-77
2022/05/25 03:13:48;;;;;;;0.90;0.70;;;;;;;;;;4915960;29;20528;-77
2022/05/25 03:16:18;;;;;;;2.03;0.90;;;;;;;;;;4897433;29;20490;-77
2022/05/25 03:18:45;;;;;;;2.07;0.90;;;;;;;;;;4917074;29;20448;-77
2022/05/25 03:21:12;;;;;;;1.43;0.90;;;;;;;;;;4933949;29;20440;-77
2022/05/25 03:23:39;;;;;;;2.70;1.20;;;;;;;;;;4912491;29;20532;-77
2022/05/25 03:26:06;;;;;;;1.40;1.00;;;;;;;;;;4912804;29;20449;-77
2022/05/25 03:28:32;;;;;;;2.07;1.30;;;;;;;;;;4913318;29;21078;-77
2022/05/25 03:30:59;;;;;;;1.10;0.80;;;;;;;;;;4905538;29;20951;-77
2022/05/25 03:33:27;;;;;;;1.43;0.90;;;;;;;;;;4915377;29;20440;-77
2022/05/25 03:35:53;;;;;;;1.13;0.80;;;;;;;;;;4915211;29;20453;-77
2022/05/25 03:38:19;;;;;;;1.20;0.97;;;;;;;;;;4925099;29;20550;-77
2022/05/25 03:40:46;;;;;;;2.07;1.00;;;;;;;;;;4917957;29;20445;-77
2022/05/25 03:43:15;;;;;;;1.77;1.07;;;;;;;;;;4913964;29;20532;-77
2022/05/25 03:45:42;;;;;;;1.43;1.10;;;;;;;;;;4913237;29;20505;-77
2022/05/25 03:48:09;;;;;;;2.60;1.10;;;;;;;;;;4920348;29;20456;-77
2022/05/25 03:50:38;;;;;;;1.20;1.03;;;;;;;;;;4925395;29;20433;-77
2022/05/25 03:53:06;;;;;;;2.20;1.50;;;;;;;;;;4915189;29;20801;-77
2022/05/25 03:55:33;;;;;;;1.67;1.23;;;;;;;;;;4913943;29;20445;-77
2022/05/25 03:57:59;;;;;;;2.50;1.17;;;;;;;;;;4932008;29;20460;-77
2022/05/25 04:00:26;;;;;;;1.63;0.93;;;;;;;;;;4928398;29;20803;-77
2022/05/25 04:02:53;;;;;;;2.50;1.50;;;;;;;;;;4914798;29;20963;-77
2022/05/25 04:05:19;;;;;;;2.03;1.23;;;;;;;;;;4913166;29;20805;-77
2022/05/25 04:07:48;;;;;;;1.70;1.20;;;;;;;;;;4923231;29;20795;-77
2022/05/25 04:10:15;;;;;;;1.90;1.03;;;;;;;;;;4917063;29;20580;-77
2022/05/25 04:12:42;;;;;;;1.40;1.07;;;;;;;;;;4915001;29;20516;-77
2022/05/25 04:15:09;;;;;;;1.30;1.10;;;;;;;;;;4920096;29;20460;-77
2022/05/25 04:17:35;;;;;;;1.87;1.20;;;;;;;;;;4934037;29;20440;-77
2022/05/25 04:20:02;;;;;;;3.90;1.07;;;;;;;;;;4924536;29;20829;-77
2022/05/25 04:22:29;;;;;;;1.93;1.07;;;;;;;;;;4897703;29;20441;-77
2022/05/25 04:24:57;;;;;;;1.20;1.00;;;;;;;;;;4913051;29;20437;-76
2022/05/25 04:27:24;;;;;;;2.70;1.00;;;;;;;;;;4898505;29;20457;-77
2022/05/25 04:29:50;;;;;;;1.97;0.87;;;;;;;;;;4907730;29;20561;-76
2022/05/25 04:32:17;;;;;;;4.10;1.10;;;;;;;;;;4907431;29;20467;-77
2022/05/25 04:34:44;;;;;;;1.20;1.00;;;;;;;;;;4923131;29;20604;-76
2022/05/25 04:39:55;;;;;;;1.40;1.00;;;;;;;;;;4914859;29;20457;-79
2022/05/25 04:42:28;;;;;;;1.10;0.80;;;;;;;;;;4912968;29;20465;-78
2022/05/25 04:44:59;;;;;;;1.60;1.03;;;;;;;;;;4920433;29;20452;-78
2022/05/25 04:47:26;;;;;;;2.30;0.90;;;;;;;;;;4932670;29;20444;-78
2022/05/25 04:49:53;;;;;;;1.40;0.80;;;;;;;;;;4934085;29;20500;-78
2022/05/25 04:52:19;;;;;;;2.50;0.93;;;;;;;;;;4914926;29;20987;-78
2022/05/25 04:54:46;;;;;;;3.23;0.90;;;;;;;;;;4920138;29;21020;-78
2022/05/25 04:57:20;;;;;;;2.20;1.00;;;;;;;;;;4914854;29;20563;-78
2022/05/25 04:59:48;;;;;;;1.57;0.97;;;;;;;;;;4917808;29;20432;-78
2022/05/25 05:02:15;;;;;;;0.90;0.67;;;;;;;;;;4914090;29;20868;-78
2022/05/25 05:04:42;;;;;;;1.40;1.10;;;;;;;;;;4919371;29;20488;-78
2022/05/25 05:07:08;;;;;;;1.10;0.80;;;;;;;;;;4939902;29;20455;-78
2022/05/25 05:09:35;;;;;;;2.60;1.13;;;;;;;;;;4932057;29;20475;-78
2022/05/25 05:12:01;;;;;;;2.23;0.90;;;;;;;;;;4945311;28;20448;-78
2022/05/25 05:14:28;;;;;;;2.30;1.13;;;;;;;;;;4918736;29;20621;-78
2022/05/25 05:16:57;;;;;;;2.00;0.90;;;;;;;;;;4936816;29;21014;-78
2022/05/25 05:19:32;;;;;;;1.40;1.07;;;;;;;;;;4907743;29;20454;-78
2022/05/25 05:22:02;;;;;;;1.90;1.30;;;;;;;;;;4929235;29;20974;-78
2022/05/25 05:24:29;;;;;;;2.33;1.23;;;;;;;;;;4944047;29;20543;-78
2022/05/25 05:26:56;;;;;;;2.07;1.17;;;;;;;;;;4936963;29;20480;-78
2022/05/25 05:29:24;;;;;;;2.40;1.40;;;;;;;;;;4938873;29;20515;-78
2022/05/25 05:31:50;;;;;;;1.37;1.00;;;;;;;;;;4934431;29;20448;-79
2022/05/25 05:34:19;;;;;;;2.13;1.00;;;;;;;;;;4935104;29;20451;-78
2022/05/25 05:36:47;;;;;;;1.93;1.20;;;;;;;;;;4936616;29;20480;-78
2022/05/25 05:39:17;;;;;;;1.80;1.13;;;;;;;;;;4942838;29;20542;-76
2022/05/25 05:41:48;;;;;;;3.13;0.87;;;;;;;;;;4944117;29;20863;-77
2022/05/25 05:44:17;;;;;;;1.23;0.87;;;;;;;;;;4937355;29;20780;-77
2022/05/25 05:46:44;;;;;;;3.00;1.00;;;;;;;;;;4917607;29;20860;-77
2022/05/25 05:49:11;;;;;;;2.87;1.33;;;;;;;;;;4934839;29;20527;-77
2022/05/25 05:51:40;;;;;;;2.17;1.30;;;;;;;;;;4917649;29;20452;-77
2022/05/25 05:54:06;;;;;;;5.03;1.17;;;;;;;;;;4934439;29;20447;-77
2022/05/25 05:56:33;;;;;;;2.23;1.00;;;;;;;;;;4942371;29;20895;-77
2022/05/25 05:59:00;;;;;;;2.50;1.30;;;;;;;;;;4936337;29;20531;-77
2022/05/25 06:01:26;;;;;;;3.57;1.20;;;;;;;;;;4920306;29;20779;-77
2022/05/25 06:03:53;;;;;;;1.30;1.00;;;;;;;;;;4943930;29;20483;-77
2022/05/25 06:06:19;;;;;;;1.77;1.57;;;;;;;;;;4953280;29;20446;-77
2022/05/25 06:08:47;;;;;;;1.40;1.00;;;;;;;;;;4936031;29;20440;-77
2022/05/25 06:11:14;;;;;;;1.87;1.10;;;;;;;;;;4917608;29;20516;-77
2022/05/25 06:13:41;;;;;;;1.40;1.17;;;;;;;;;;4939066;29;20453;-78
2022/05/25 06:21:35;;;;;;;2.07;1.20;;;;;;;;;;4913554;29;20460;-78
2022/05/25 06:24:04;;;;;;;1.60;1.07;;;;;;;;;;4934026;29;20436;-78
2022/05/25 06:26:31;;;;;;;1.40;0.90;;;;;;;;;;4933787;29;20535;-78
2022/05/25 06:28:58;;;;;;;1.53;1.27;;;;;;;;;;4933086;29;20511;-78
2022/05/25 06:31:25;;;;;;;1.40;1.03;;;;;;;;;;4917731;29;20444;-78
2022/05/25 06:33:51;;;;;;;5.10;1.20;;;;;;;;;;4936293;29;20535;-78
2022/05/25 06:36:19;;;;;;;1.60;1.20;;;;;;;;;;4944705;29;20550;-78
2022/05/25 06:38:46;;;;;;;1.67;1.00;;;;;;;;;;4934985;29;20432;-79
2022/05/25 06:41:14;;;;;;;1.80;1.30;;;;;;;;;;4921359;29;20459;-79
2022/05/25 06:43:41;;;;;;;2.10;1.20;;;;;;;;;;4917611;29;20660;-78
2022/05/25 06:46:07;;;;;;;3.60;1.20;;;;;;;;;;4934758;29;20504;-78
2022/05/25 06:48:34;;;;;;;2.27;1.20;;;;;;;;;;4934796;29;20437;-79
2022/05/25 06:51:09;;;;;;;2.13;1.30;;;;;;;;;;4916802;29;20499;-78
2022/05/25 06:53:36;;;;;;;2.90;1.17;;;;;;;;;;4944226;29;20459;-79
2022/05/25 06:56:02;;;;;;;1.70;1.30;;;;;;;;;;4953759;29;20519;-78
2022/05/25 06:58:30;;;;;;;2.03;1.80;;;;;;;;;;4934991;29;20449;-78
2022/05/25 07:00:57;;;;;;;2.03;1.20;;;;;;;;;;4944958;29;20451;-78
2022/05/25 07:03:23;;;;;;;1.30;1.20;;;;;;;;;;4948481;29;20546;-78
2022/05/25 07:05:49;;;;;;;2.30;1.40;;;;;;;;;;4917902;29;20445;-78
2022/05/25 07:08:17;;;;;;;2.47;1.00;;;;;;;;;;4926468;29;20453;-78
2022/05/25 07:10:45;;;;;;;2.80;1.43;;;;;;;;;;4891765;29;20990;-79
2022/05/25 07:13:12;;;;;;;1.80;1.30;;;;;;;;;;4916773;29;20958;-78
2022/05/25 07:15:40;;;;;;;2.00;0.93;;;;;;;;;;4918739;29;20544;-79
2022/05/25 07:18:06;;;;;;;1.60;1.30;;;;;;;;;;4903414;29;20488;-78
2022/05/25 07:20:33;;;;;;;1.40;1.30;;;;;;;;;;4922729;29;20504;-79
2022/05/25 07:22:59;;;;;;;1.40;1.00;;;;;;;;;;4917299;29;20448;-78
2022/05/25 07:25:26;;;;;;;2.10;1.90;;;;;;;;;;4917248;29;21086;-79
2022/05/25 07:27:53;;;;;;;2.73;1.60;;;;;;;;;;4930988;29;20943;-79
2022/05/25 07:30:19;;;;;;;1.50;1.00;;;;;;;;;;4905166;29;20470;-79
2022/05/25 07:32:48;;;;;;;1.90;1.43;;;;;;;;;;4914112;29;20568;-79
2022/05/25 07:35:15;;;;;;;3.00;1.30;;;;;;;;;;4914012;29;20453;-79
2022/05/25 07:37:43;;;;;;;3.50;1.47;;;;;;;;;;4933452;29;20444;-79
2022/05/25 07:40:12;;;;;;;1.30;1.20;;;;;;;;;;4933747;29;20488;-79
2022/05/25 07:42:40;;;;;;;1.10;0.90;;;;;;;;;;4939695;29;20459;-79
2022/05/25 07:45:07;;;;;;;1.33;0.90;;;;;;;;;;4937524;29;20452;-79
2022/05/25 07:47:54;;;;;;;2.73;1.50;;;;;;;;;;4928077;29;20511;-79
2022/05/25 07:50:23;;;;;;;1.70;1.40;;;;;;;;;;4900207;29;20472;-79
2022/05/25 07:52:51;;;;;;;2.00;1.23;;;;;;;;;;4933401;29;20452;-79
2022/05/25 07:55:17;;;;;;;1.67;1.30;;;;;;;;;;4915253;29;20448;-79
2022/05/25 07:57:44;;;;;;;1.40;1.17;;;;;;;;;;4916938;29;22581;-79
2022/05/25 08:00:11;;;;;;;1.40;1.30;;;;;;;;;;4937419;29;20515;-79
2022/05/25 08:05:54;;;;;;;1.73;1.27;;;;;;;;;;4839675;29;20793;-79
2022/05/25 08:08:38;;;;;;;2.90;1.13;;;;;;;;;;4924890;29;20460;-79
2022/05/25 08:11:10;;;;;;;1.40;1.10;;;;;;;;;;4897033;29;20519;-79
2022/05/25 08:13:37;;;;;;;1.73;1.60;;;;;;;;;;4924224;29;20452;-79
2022/05/25 08:16:04;;;;;;;3.23;1.40;;;;;;;;;;4932142;29;20441;-79
2022/05/25 08:18:31;;;;;;;2.27;1.40;;;;;;;;;;4932978;29;20563;-79
2022/05/25 08:20:59;;;;;;;5.30;1.60;;;;;;;;;;4929115;29;20444;-79
2022/05/25 08:23:25;;;;;;;1.47;1.17;;;;;;;;;;4923976;29;20896;-79
2022/05/25 08:25:52;;;;;;;1.60;1.50;;;;;;;;;;4915516;29;20918;-79
2022/05/25 08:28:18;;;;;;;1.90;1.33;;;;;;;;;;4933775;29;20436;-80
2022/05/25 08:30:45;;;;;;;3.37;1.17;;;;;;;;;;4931686;29;20468;-79
2022/05/25 08:33:12;;;;;;;1.80;1.40;;;;;;;;;;4929281;29;20763;-75
2022/05/25 08:35:38;;;;;;;1.87;1.40;;;;;;;;;;4923957;29;20563;-75
2022/05/25 08:38:06;;;;;;;1.70;1.17;;;;;;;;;;4913782;29;20464;-75
2022/05/25 08:40:36;;;;;;;4.20;2.07;;;;;;;;;;4915009;29;20464;-76
2022/05/25 08:43:05;;;;;;;1.93;1.33;;;;;;;;;;4932067;29;20548;-75
2022/05/25 08:45:33;;;;;;;4.30;1.30;;;;;;;;;;4931635;29;20562;-76
2022/05/25 08:48:01;;;;;;;2.83;1.20;;;;;;;;;;4915372;29;20959;-76
2022/05/25 08:50:29;;;;;;;1.30;1.13;;;;;;;;;;4930123;29;20475;-76
2022/05/25 08:52:56;;;;;;;1.60;1.30;;;;;;;;;;4917621;29;20523;-75
2022/05/25 08:55:28;;;;;;;1.30;1.07;;;;;;;;;;4934262;29;20440;-75
2022/05/25 08:57:57;;;;;;;1.20;1.00;;;;;;;;;;4913869;29;20547;-75
2022/05/25 09:00:34;;;;;;;1.40;1.30;;;;;;;;;;4919283;29;20436;-75
2022/05/25 09:03:04;;;;;;;1.60;1.00;;;;;;;;;;4915079;29;20974;-75
2022/05/25 09:05:35;;;;;;;1.30;1.00;;;;;;;;;;4916169;29;21523;-75
2022/05/25 09:08:04;;;;;;;2.13;1.70;;;;;;;;;;4912122;29;20810;-75
2022/05/25 09:10:37;;;;;;;1.40;0.83;;;;;;;;;;4911485;29;20479;-76
2022/05/25 09:13:12;;;;;;;3.63;1.27;;;;;;;;;;4918296;29;20459;-75
2022/05/25 09:16:15;;;;;;;2.13;0.93;;;;;;;;;;4908230;29;20451;-75
2022/05/25 09:18:33;;;;;;;1.00;0.87;;;;;;;;;;4919689;29;20956;-75
2022/05/25 09:21:01;;;;;;;3.27;0.87;;;;;;;;;;4913646;29;20444;-75
2022/05/25 09:23:28;;;;;;;1.33;1.10;;;;;;;;;;4918288;29;20503;-76
2022/05/25 09:25:57;;;;;;;1.10;0.87;;;;;;;;;;4934900;29;20447;-75
2022/05/25 09:28:26;;;;;;;1.77;1.20;;;;;;;;;;4935629;29;20892;-75
2022/05/25 09:30:54;;;;;;;2.17;1.50;;;;;;;;;;4936184;29;20464;-76
2022/05/25 09:33:27;;;;;;;2.13;1.23;;;;;;;;;;4908467;29;20487;-76
2022/05/25 09:35:58;;;;;;;1.50;1.10;;;;;;;;;;4910283;29;20730;-75
2022/05/25 09:38:30;;;;;;;1.40;1.00;;;;;;;;;;4917862;29;20433;-75
2022/05/25 09:41:03;;;;;;;4.33;1.40;;;;;;;;;;4934454;29;20437;-75
2022/05/25 09:43:32;;;;;;;1.40;1.10;;;;;;;;;;4900643;29;20459;-76
2022/05/25 09:46:00;;;;;;;2.60;1.50;;;;;;;;;;4922024;29;20474;-76
2022/05/25 09:48:29;;;;;;;2.33;1.20;;;;;;;;;;4933412;29;20452;-76
2022/05/25 09:51:01;;;;;;;3.10;1.00;;;;;;;;;;4917850;29;20474;-75
2022/05/25 09:53:33;;;;;;;1.77;1.67;;;;;;;;;;4932551;29;20448;-75
2022/05/25 09:56:04;;;;;;;1.60;0.93;;;;;;;;;;4918656;29;20531;-75
2022/05/25 09:58:32;;;;;;;1.30;1.00;;;;;;;;;;4933288;29;20789;-75
2022/05/25 10:01:05;;;;;;;1.30;1.00;;;;;;;;;;4918787;29;20433;-75
2022/05/25 10:03:36;;;;;;;2.47;1.10;;;;;;;;;;4916018;29;20562;-75
2022/05/25 10:06:17;;;;;;;1.30;1.20;;;;;;;;;;4915665;29;20460;-75
2022/05/25 10:08:45;;;;;;;2.80;1.17;;;;;;;;;;4906177;29;20497;-75
2022/05/25 10:11:27;;;;;;;1.63;1.00;;;;;;;;;;4923754;29;20481;-75
2022/05/25 10:13:55;;;;;;;1.63;1.23;;;;;;;;;;4914278;29;20463;-75
2022/05/25 10:16:22;;;;;;;1.80;0.97;;;;;;;;;;4913834;29;20463;-75
2022/05/25 10:18:50;;;;;;;1.77;0.97;;;;;;;;;;4932787;29;20460;-75
2022/05/25 10:21:24;;;;;;;2.07;1.00;;;;;;;;;;4927147;29;20466;-75
2022/05/25 10:23:50;;;;;;;1.47;1.20;;;;;;;;;;4915163;29;20455;-75
2022/05/25 10:26:24;;;;;;;1.30;1.10;;;;;;;;;;4901890;29;20540;-76
2022/05/25 10:28:53;;;;;;;1.40;0.90;;;;;;;;;;4915856;29;20886;-75
2022/05/25 10:37:00;;;;;;;1.67;0.93;;;;;;;;;;4914621;29;20479;-75
2022/05/25 10:39:33;;;;;;;1.27;0.83;;;;;;;;;;4935694;29;20912;-75
2022/05/25 10:42:15;;;;;;;1.83;1.00;;;;;;;;;;4915249;29;20953;-75
2022/05/25 10:44:47;;;;;;;2.33;0.87;;;;;;;;;;4914131;29;20448;-75
2022/05/25 10:47:24;;;;;;;1.30;1.20;;;;;;;;;;4934128;29;20548;-75
2022/05/25 10:49:52;;;;;;;1.10;1.00;;;;;;;;;;4934505;29;20455;-75
2022/05/25 10:52:22;;;;;;;2.23;1.10;;;;;;;;;;4925162;29;20551;-75
2022/05/25 10:54:52;;;;;;;1.37;0.97;;;;;;;;;;4899566;29;20480;-75
2022/05/25 10:57:27;;;;;;;5.80;1.20;;;;;;;;;;4931001;29;20471;-75
2022/05/25 10:59:57;;;;;;;5.00;1.10;;;;;;;;;;4916919;29;20448;-75
2022/05/25 11:02:32;;;;;;;3.63;1.47;;;;;;;;;;4916568;29;20976;-75
2022/05/25 11:05:12;;;;;;;1.80;1.20;;;;;;;;;;4914057;29;20966;-75
2022/05/25 11:07:39;;;;;;;1.77;1.20;;;;;;;;;;4926658;29;20455;-76
2022/05/25 11:10:20;;;;;;;1.30;1.20;;;;;;;;;;4932602;29;20874;-75
2022/05/25 11:12:52;;;;;;;2.57;1.00;;;;;;;;;;4934799;29;20523;-75
2022/05/25 11:15:22;;;;;;;2.50;1.10;;;;;;;;;;4934088;29;20456;-75
2022/05/25 11:18:03;;;;;;;3.40;1.13;;;;;;;;;;4933861;29;20473;-75
2022/05/25 11:20:33;;;;;;;1.97;0.83;;;;;;;;;;4916688;29;20460;-75
2022/05/25 11:23:07;;;;;;;2.43;1.10;;;;;;;;;;4929239;29;20857;-75
2022/05/25 11:25:41;;;;;;;1.97;1.10;;;;;;;;;;4933191;29;20443;-76
2022/05/25 11:28:18;;;;;;;1.67;1.03;;;;;;;;;;4911206;29;20464;-75
2022/05/25 11:30:48;;;;;;;1.90;1.20;;;;;;;;;;4912084;29;20480;-75
2022/05/25 11:33:21;;;;;;;1.50;1.10;;;;;;;;;;4913368;29;20452;-76
2022/05/25 11:35:51;;;;;;;3.00;1.00;;;;;;;;;;4914589;29;20444;-75
2022/05/25 11:38:34;;;;;;;1.73;1.13;;;;;;;;;;4912923;29;20538;-76
2022/05/25 11:41:06;;;;;;;1.33;1.17;;;;;;;;;;4926695;29;20468;-75
2022/05/25 11:43:50;;;;;;;1.20;0.87;;;;;;;;;;4915939;29;20452;-76
2022/05/25 11:46:22;;;;;;;1.47;1.00;;;;;;;;;;4916033;29;20535;-76
2022/05/25 11:48:57;;;;;;;4.57;1.20;;;;;;;;;;4926303;29;20486;-75
2022/05/25 11:51:25;;;;;;;1.20;0.90;;;;;;;;;;4915017;29;20485;-75
2022/05/25 11:54:03;;;;;;;1.37;1.00;;;;;;;;;;4953718;29;20471;-75
2022/05/25 11:56:37;;;;;;;1.67;1.10;;;;;;;;;;4930639;29;20464;-75
2022/05/25 11:59:13;;;;;;;2.07;0.90;;;;;;;;;;4907723;29;20471;-75
2022/05/25 12:01:45;;;;;;;1.93;1.20;;;;;;;;;;4928222;29;20531;-75
2022/05/25 12:04:30;;;;;;;2.13;1.27;;;;;;;;;;4916536;29;20483;-75
2022/05/25 12:07:08;;;;;;;3.80;1.40;;;;;;;;;;4915579;29;20461;-75
2022/05/25 12:09:50;;;;;;;4.40;1.10;;;;;;;;;;4915808;29;20516;-75
2022/05/25 12:12:22;;;;;;;1.97;1.20;;;;;;;;;;4929392;29;20487;-75
2022/05/25 12:14:54;;;;;;;5.07;1.50;;;;;;;;;;4931525;29;20567;-76
2022/05/25 12:17:25;;;;;;;2.37;1.00;;;;;;;;;;4909792;29;20805;-75
2022/05/25 12:19:52;;;;;;;2.80;1.60;;;;;;;;;;4913296;29;20461;-75
2022/05/25 12:22:21;;;;;;;1.50;1.03;;;;;;;;;;4913375;29;20542;-75
2022/05/25 12:24:50;;;;;;;1.43;1.10;;;;;;;;;;4898505;29;20461;-75
2022/05/25 12:27:18;;;;;;;1.80;1.23;;;;;;;;;;4915996;29;20523;-75
2022/05/25 12:29:47;;;;;;;1.47;1.03;;;;;;;;;;4915338;29;20508;-75
2022/05/25 12:32:14;;;;;;;1.30;0.97;;;;;;;;;;4916891;29;20476;-75
2022/05/25 12:34:43;;;;;;;1.70;1.10;;;;;;;;;;4943823;29;20844;-75
2022/05/25 12:37:10;;;;;;;1.63;1.13;;;;;;;;;;4933788;29;20491;-75
2022/05/25 12:39:53;;;;;;;1.70;1.17;;;;;;;;;;4932542;29;20465;-75
2022/05/25 12:42:47;;;;;;;1.43;1.10;;;;;;;;;;4904832;29;20489;-75
2022/05/25 12:48:33;;;;;;;1.63;0.93;;;;;;;;;;4915620;29;20444;-75
2022/05/25 12:51:05;;;;;;;2.57;1.10;;;;;;;;;;4910985;29;20432;-75
2022/05/25 12:53:34;;;;;;;1.47;1.10;;;;;;;;;;4932850;29;20802;-75
2022/05/25 12:56:01;;;;;;;5.20;1.40;;;;;;;;;;4894165;29;20488;-75
2022/05/25 12:58:52;;;;;;;2.23;1.37;;;;;;;;;;4926763;29;20931;-75
2022/05/25 13:01:39;;;;;;;2.00;1.30;;;;;;;;;;4909133;29;20939;-75
2022/05/25 13:04:21;;;;;;;1.20;1.00;;;;;;;;;;4904859;29;20481;-75
2022/05/25 13:07:07;;;;;;;1.77;1.13;;;;;;;;;;4911089;29;20463;-76
2022/05/25 13:09:40;;;;;;;2.50;1.00;;;;;;;;;;4928224;29;20455;-75
2022/05/25 13:12:25;;;;;;;1.30;1.10;;;;;;;;;;4914261;29;20567;-75
2022/05/25 13:14:53;;;;;;;2.27;1.30;;;;;;;;;;4921996;29;20453;-75
2022/05/25 13:17:45;;;;;;;1.53;1.00;;;;;;;;;;4920239;29;20460;-75
2022/05/25 13:20:16;;;;;;;1.87;1.20;;;;;;;;;;4913421;29;20916;-75
2022/05/25 13:22:42;;;;;;;1.10;0.73;;;;;;;;;;4912417;29;20519;-75
2022/05/25 13:25:25;;;;;;;1.40;1.00;;;;;;;;;;4907626;29;20515;-75
2022/05/25 13:28:02;;;;;;;2.20;1.40;;;;;;;;;;4927975;29;20518;-75
2022/05/25 13:30:31;;;;;;;1.90;0.90;;;;;;;;;;4927380;29;20515;-75
2022/05/25 13:32:58;;;;;;;2.57;1.13;;;;;;;;;;4932675;29;20822;-74
2022/05/25 13:35:32;;;;;;;1.50;1.20;;;;;;;;;;4917199;29;20806;-75
2022/05/25 13:38:01;;;;;;;2.33;1.40;;;;;;;;;;4899954;29;20814;-76
2022/05/25 13:40:37;;;;;;;4.47;1.43;;;;;;;;;;4933480;29;20460;-74
2022/05/25 13:43:03;;;;;;;1.60;1.20;;;;;;;;;;4937236;29;20444;-75
2022/05/25 13:45:30;;;;;;;4.07;1.30;;;;;;;;;;4917666;29;20555;-75
2022/05/25 13:47:58;;;;;;;1.30;1.20;;;;;;;;;;4934384;29;20906;-75
2022/05/25 13:50:32;;;;;;;1.70;1.00;;;;;;;;;;4930645;23;20471;-75
2022/05/25 13:52:58;;;;;;;2.27;1.17;;;;;;;;;;4974852;28;20473;-75
2022/05/25 13:55:27;;;;;;;1.70;1.20;;;;;;;;;;4968783;28;20817;-75
2022/05/25 13:57:59;;;;;;;2.37;1.00;;;;;;;;;;4962178;28;20438;-75
2022/05/25 14:00:32;;;;;;;2.27;1.53;;;;;;;;;;4967888;28;21010;-75
2022/05/25 14:03:00;;;;;;;2.97;1.17;;;;;;;;;;4973457;28;21000;-75
2022/05/25 14:05:31;;;;;;;1.30;1.00;;;;;;;;;;4972566;28;20486;-75
2022/05/25 14:08:05;;;;;;;1.60;1.27;;;;;;;;;;4970685;28;20457;-80
2022/05/25 14:13:19;;;;;;;2.33;1.10;;;;;;;;;;4970757;28;21238;-79
2022/05/25 14:15:56;;;;;;;1.60;1.30;;;;;;;;;;4965049;28;20844;-79
2022/05/25 14:18:22;;;;;;;2.50;1.00;;;;;;;;;;4970117;28;20927;-80
2022/05/25 14:20:49;;;;;;;1.40;0.90;;;;;;;;;;4969643;28;20442;-79
2022/05/25 14:23:17;;;;;;;2.50;1.50;;;;;;;;;;4970756;28;20780;-81
2022/05/25 14:25:45;;;;;;;1.10;0.83;;;;;;;;;;4971493;28;20537;-79
2022/05/25 14:28:12;;;;;;;1.50;1.30;;;;;;;;;;4971124;28;20441;-79
2022/05/25 14:30:41;;;;;;;1.77;1.27;;;;;;;;;;4969927;28;20454;-79
2022/05/25 14:33:09;;;;;;;1.40;1.00;;;;;;;;;;4968852;28;20458;-79
2022/05/25 14:35:36;;;;;;;2.70;1.13;;;;;;;;;;4969926;28;20470;-79
2022/05/25 14:38:05;;;;;;;3.63;1.30;;;;;;;;;;4967031;28;20458;-79
2022/05/25 14:40:33;;;;;;;2.40;2.00;;;;;;;;;;4968673;28;20450;-79
2022/05/25 14:43:01;;;;;;;3.40;1.10;;;;;;;;;;4966949;28;20501;-79
2022/05/25 14:45:28;;;;;;;1.90;1.07;;;;;;;;;;4967568;28;20624;-79
2022/05/25 14:47:57;;;;;;;1.73;1.10;;;;;;;;;;4972769;28;20443;-79
2022/05/25 14:50:27;;;;;;;4.03;1.20;;;;;;;;;;4968121;28;20471;-79
2022/05/25 14:52:56;;;;;;;1.03;0.80;;;;;;;;;;4955482;28;20469;-79
2022/05/25 14:55:26;;;;;;;1.47;0.97;;;;;;;;;;4946639;28;20920;-79
2022/05/25 14:58:07;;;;;;;3.00;1.10;;;;;;;;;;4948089;29;20467;-79
2022/05/25 15:00:36;;;;;;;2.30;1.10;;;;;;;;;;4952804;28;20458;-79
2022/05/25 15:03:04;;;;;;;1.33;0.80;;;;;;;;;;4954975;28;20463;-79
2022/05/25 15:05:41;;;;;;;1.73;1.50;;;;;;;;;;4967408;28;20511;-79
2022/05/25 15:08:19;;;;;;;2.40;1.13;;;;;;;;;;4971277;28;20450;-79
2022/05/25 15:10:45;;;;;;;3.13;1.10;;;;;;;;;;4951223;28;20588;-74
2022/05/25 15:13:23;;;;;;;2.40;1.20;;;;;;;;;;4972599;28;20569;-75
2022/05/25 15:18:37;;;;;;;1.07;0.70;;;;;;;;;;4972366;28;20525;-75
2022/05/25 15:21:16;;;;;;;1.20;1.00;;;;;;;;;;4950946;28;20486;-75
2022/05/25 15:23:44;;;;;;;2.00;1.30;;;;;;;;;;4967065;28;20446;-75
2022/05/25 15:26:13;;;;;;;1.70;1.10;;;;;;;;;;4964193;28;20459;-75
2022/05/25 15:28:40;;;;;;;3.67;1.20;;;;;;;;;;4950000;28;20534;-76
2022/05/25 15:31:11;;;;;;;1.30;1.00;;;;;;;;;;4943962;28;20457;-75